createdAt,value
2023-05-23T00:00:54.934Z,21.80
2023-05-23T00:03:42.994Z,21.80
2023-05-23T00:06:31.591Z,21.70
2023-05-23T00:09:20.014Z,21.70
2023-05-23T00:12:07.826Z,21.60
2023-05-23T00:14:55.784Z,21.60
2023-05-23T00:17:44.836Z,21.60
2023-05-23T00:20:35.168Z,21.70
2023-05-23T00:23:24.832Z,21.60
2023-05-23T00:26:12.598Z,21.70
2023-05-23T00:29:00.269Z,21.70
2023-05-23T00:31:48.124Z,21.80
2023-05-23T00:34:36.778Z,21.80
2023-05-23T00:37:24.265Z,21.80
2023-05-23T00:40:12.416Z,21.70
2023-05-23T00:43:00.951Z,21.60
2023-05-23T00:45:49.398Z,21.50
2023-05-23T00:48:38.778Z,21.50
2023-05-23T00:51:26.387Z,21.40
2023-05-23T00:54:16.901Z,21.30
2023-05-23T00:57:04.774Z,21.30
2023-05-23T00:59:53.007Z,21.30
2023-05-23T01:02:48.097Z,21.30
2023-05-23T01:05:36.199Z,21.30
2023-05-23T01:08:24.020Z,21.30
2023-05-23T01:11:42.446Z,21.30
2023-05-23T01:14:51.092Z,21.40
2023-05-23T01:18:04.538Z,21.20
2023-05-23T01:20:59.952Z,21.10
2023-05-23T01:24:13.090Z,21.20
2023-05-23T01:27:30.475Z,21.20
2023-05-23T01:30:21.475Z,21.20
2023-05-23T01:33:11.965Z,21.00
2023-05-23T01:36:05.656Z,21.10
2023-05-23T01:38:53.141Z,21.00
2023-05-23T01:41:41.363Z,21.00
2023-05-23T01:44:29.429Z,21.00
2023-05-23T01:47:18.188Z,20.90
2023-05-23T01:50:07.255Z,20.90
2023-05-23T01:52:57.019Z,20.80
2023-05-23T01:55:45.447Z,20.80
2023-05-23T01:58:33.105Z,20.80
2023-05-23T02:01:21.360Z,20.80
2023-05-23T02:04:09.517Z,20.80
2023-05-23T02:06:57.107Z,21.00
2023-05-23T02:09:44.555Z,21.00
2023-05-23T02:12:32.181Z,20.90
2023-05-23T02:15:19.947Z,21.00
2023-05-23T02:18:07.571Z,20.90
2023-05-23T02:20:58.167Z,20.90
2023-05-23T02:23:45.692Z,20.90
2023-05-23T02:26:33.219Z,20.90
2023-05-23T02:29:21.066Z,20.90
2023-05-23T02:32:08.589Z,20.90
2023-05-23T02:34:57.405Z,20.90
2023-05-23T02:37:45.271Z,20.90
2023-05-23T02:40:32.740Z,21.00
2023-05-23T02:43:20.716Z,20.90
2023-05-23T02:46:08.218Z,20.80
2023-05-23T02:48:56.260Z,20.70
2023-05-23T02:51:43.736Z,20.70
2023-05-23T02:54:31.330Z,20.70
2023-05-23T02:57:18.814Z,20.50
2023-05-23T03:00:07.313Z,20.70
2023-05-23T03:02:55.003Z,20.50
2023-05-23T03:05:43.006Z,20.50
2023-05-23T03:08:31.001Z,20.50
2023-05-23T03:11:18.590Z,20.60
2023-05-23T03:14:06.121Z,20.70
2023-05-23T03:16:53.603Z,20.70
2023-05-23T03:19:41.204Z,20.70
2023-05-23T03:22:28.883Z,20.70
2023-05-23T03:25:17.053Z,20.70
2023-05-23T03:28:04.626Z,20.80
2023-05-23T03:30:52.155Z,20.70
2023-05-23T03:33:40.659Z,20.70
2023-05-23T03:36:28.634Z,20.70
2023-05-23T03:39:16.403Z,20.80
2023-05-23T03:42:04.112Z,20.80
2023-05-23T03:44:51.570Z,20.90
2023-05-23T03:47:39.226Z,21.10
2023-05-23T03:50:27.150Z,21.00
2023-05-23T03:53:14.717Z,21.10
2023-05-23T03:56:02.323Z,21.30
2023-05-23T03:58:49.794Z,21.30
2023-05-23T04:01:37.278Z,21.60
2023-05-23T04:04:26.551Z,22.00
2023-05-23T04:07:15.860Z,22.20
2023-05-23T04:10:04.387Z,22.40
2023-05-23T04:12:52.048Z,22.60
2023-05-23T04:15:40.076Z,22.90
2023-05-23T04:18:28.824Z,23.40
2023-05-23T04:21:16.441Z,23.50
2023-05-23T04:24:04.133Z,23.70
2023-05-23T04:26:51.735Z,23.60
2023-05-23T04:29:40.238Z,24.00
2023-05-23T04:32:27.993Z,24.70
2023-05-23T04:35:15.749Z,25.60
2023-05-23T04:38:04.092Z,26.40
2023-05-23T04:40:54.856Z,27.00
2023-05-23T04:43:43.081Z,27.50
2023-05-23T04:46:30.512Z,28.10
2023-05-23T04:49:18.245Z,28.10
2023-05-23T04:52:06.610Z,29.00
2023-05-23T04:54:54.284Z,29.10
2023-05-23T04:57:42.038Z,29.10
2023-05-23T05:00:30.459Z,29.10
2023-05-23T05:03:18.050Z,28.50
2023-05-23T05:06:06.271Z,27.60
2023-05-23T05:08:54.285Z,27.00
2023-05-23T05:11:41.765Z,26.50
2023-05-23T05:14:29.278Z,26.20
2023-05-23T05:17:17.103Z,26.50
2023-05-23T05:20:08.931Z,27.30
2023-05-23T05:22:59.632Z,27.70
2023-05-23T05:25:48.018Z,28.60
2023-05-23T05:28:35.710Z,29.70
2023-05-23T05:31:23.310Z,30.30
2023-05-23T05:34:11.577Z,30.50
2023-05-23T05:36:59.034Z,29.90
2023-05-23T05:39:46.573Z,29.30
2023-05-23T05:42:34.276Z,29.60
2023-05-23T05:45:21.827Z,28.90
2023-05-23T05:48:09.385Z,28.40
2023-05-23T05:50:56.957Z,28.30
2023-05-23T05:53:44.491Z,27.60
2023-05-23T05:56:32.582Z,27.40
2023-05-23T05:59:20.099Z,27.10
2023-05-23T06:02:08.348Z,27.10
2023-05-23T06:04:55.996Z,26.90
2023-05-23T06:07:44.504Z,26.70
2023-05-23T06:10:32.103Z,26.90
2023-05-23T06:13:19.623Z,26.70
2023-05-23T06:16:07.395Z,26.30
2023-05-23T06:18:55.218Z,26.50
2023-05-23T06:21:42.801Z,26.70
2023-05-23T06:24:30.386Z,26.50
2023-05-23T06:27:17.940Z,26.70
2023-05-23T06:30:06.789Z,26.30
2023-05-23T06:32:54.271Z,26.50
2023-05-23T06:35:41.847Z,26.90
2023-05-23T06:38:33.994Z,26.80
2023-05-23T06:41:21.527Z,27.50
2023-05-23T06:44:09.036Z,27.40
2023-05-23T06:46:59.594Z,27.20
2023-05-23T06:49:47.093Z,27.30
2023-05-23T06:52:34.632Z,27.60
2023-05-23T06:55:23.572Z,28.00
2023-05-23T06:58:11.177Z,27.80
2023-05-23T07:00:59.113Z,27.60
2023-05-23T07:03:46.757Z,27.70
2023-05-23T07:06:36.653Z,28.80
2023-05-23T07:09:24.202Z,28.90
2023-05-23T07:12:11.714Z,29.00
2023-05-23T07:14:59.235Z,29.30
2023-05-23T07:17:47.072Z,29.10
2023-05-23T07:20:36.262Z,29.60
2023-05-23T07:23:24.651Z,29.40
2023-05-23T07:26:12.135Z,29.50
2023-05-23T07:28:59.616Z,29.50
2023-05-23T07:31:47.260Z,29.50
2023-05-23T07:34:37.831Z,29.10
2023-05-23T07:37:27.472Z,28.90
2023-05-23T07:40:15.124Z,29.20
2023-05-23T07:43:02.626Z,29.40
2023-05-23T07:45:50.224Z,28.20
2023-05-23T07:48:37.766Z,27.90
2023-05-23T07:51:25.447Z,26.70
2023-05-23T07:54:15.754Z,26.50
2023-05-23T07:57:05.122Z,26.00
2023-05-23T07:59:54.305Z,25.40
2023-05-23T08:02:42.323Z,25.50
2023-05-23T08:05:30.004Z,25.40
2023-05-23T08:08:17.834Z,25.50
2023-05-23T08:11:05.613Z,25.70
2023-05-23T08:13:53.219Z,25.70
2023-05-23T08:16:40.947Z,25.60
2023-05-23T08:19:29.358Z,25.80
2023-05-23T08:22:17.126Z,26.00
2023-05-23T08:25:06.292Z,26.00
2023-05-23T08:27:55.998Z,26.00
2023-05-23T08:30:43.842Z,26.20
2023-05-23T08:33:31.780Z,26.20
2023-05-23T08:36:19.298Z,26.20
2023-05-23T08:39:06.968Z,26.50
2023-05-23T08:41:54.751Z,26.60
2023-05-23T08:44:42.397Z,27.50
2023-05-23T08:47:35.201Z,27.40
2023-05-23T08:50:23.782Z,28.00
2023-05-23T08:53:20.487Z,28.30
2023-05-23T08:56:11.318Z,28.60
2023-05-23T08:58:59.404Z,28.90
2023-05-23T09:01:48.873Z,29.30
2023-05-23T09:04:36.775Z,29.40
2023-05-23T09:07:24.368Z,29.60
2023-05-23T09:10:13.078Z,29.50
2023-05-23T09:13:01.496Z,29.70
2023-05-23T09:16:08.526Z,30.20
2023-05-23T09:18:56.150Z,30.40
2023-05-23T09:21:45.720Z,30.40
2023-05-23T09:24:38.637Z,31.00
2023-05-23T09:27:26.133Z,31.20
2023-05-23T09:30:14.529Z,31.10
2023-05-23T09:33:05.538Z,31.70
2023-05-23T09:35:54.909Z,31.50
2023-05-23T09:38:46.116Z,31.80
2023-05-23T09:41:37.220Z,32.30
2023-05-23T09:44:25.190Z,31.80
2023-05-23T09:47:12.873Z,32.00
2023-05-23T09:50:00.503Z,31.30
2023-05-23T09:52:48.325Z,31.80
2023-05-23T09:55:35.906Z,32.60
2023-05-23T09:58:27.267Z,32.90
2023-05-23T10:01:16.650Z,33.00
2023-05-23T10:04:05.535Z,32.40
2023-05-23T10:07:04.594Z,33.20
2023-05-23T10:10:03.547Z,33.70
2023-05-23T10:12:56.281Z,33.10
2023-05-23T10:15:44.316Z,33.90
2023-05-23T10:18:43.816Z,33.80
2023-05-23T10:21:40.955Z,33.30
2023-05-23T10:24:29.655Z,33.00
2023-05-23T10:27:17.648Z,33.50
2023-05-23T10:30:09.693Z,33.40
2023-05-23T10:32:59.415Z,33.30
2023-05-23T10:36:37.882Z,33.30
2023-05-23T10:40:05.204Z,32.70
2023-05-23T10:43:29.713Z,33.00
2023-05-23T10:46:21.836Z,33.70
2023-05-23T10:49:11.536Z,33.20
2023-05-23T10:52:01.015Z,33.30
2023-05-23T10:54:56.404Z,33.80
2023-05-23T10:57:45.936Z,33.70
2023-05-23T11:00:33.621Z,33.80
2023-05-23T11:03:52.026Z,34.00
2023-05-23T11:06:45.729Z,34.00
2023-05-23T11:09:33.223Z,34.00
2023-05-23T11:12:44.924Z,33.90
2023-05-23T11:15:45.114Z,34.20
2023-05-23T11:18:39.446Z,34.80
2023-05-23T11:21:30.088Z,34.70
2023-05-23T11:24:20.806Z,34.20
2023-05-23T11:27:13.149Z,33.90
2023-05-23T11:30:09.624Z,34.30
2023-05-23T11:32:57.475Z,33.90
2023-05-23T11:35:48.280Z,34.40
2023-05-23T11:38:36.203Z,34.30
2023-05-23T11:41:23.845Z,34.70
2023-05-23T11:44:14.847Z,33.90
2023-05-23T11:47:07.814Z,34.10
2023-05-23T11:49:55.353Z,34.20
2023-05-23T11:52:43.127Z,33.90
2023-05-23T11:55:31.320Z,34.20
2023-05-23T11:58:23.112Z,34.50
2023-05-23T12:01:12.887Z,35.10
2023-05-23T12:04:01.123Z,34.90
2023-05-23T12:06:50.805Z,35.20
2023-05-23T12:09:46.649Z,35.20
2023-05-23T12:12:34.212Z,34.70
2023-05-23T12:15:29.729Z,34.10
2023-05-23T12:18:17.310Z,34.10
2023-05-23T12:21:08.672Z,34.00
2023-05-23T12:23:57.504Z,33.60
2023-05-23T12:26:59.420Z,33.80
2023-05-23T12:29:54.253Z,33.40
2023-05-23T12:32:44.375Z,32.80
2023-05-23T12:35:32.131Z,31.80
2023-05-23T12:38:19.969Z,32.00
2023-05-23T12:41:17.736Z,31.20
2023-05-23T12:44:05.340Z,31.00
2023-05-23T12:46:52.980Z,30.70
2023-05-23T12:49:40.976Z,30.80
2023-05-23T12:52:28.491Z,30.60
2023-05-23T12:55:16.615Z,29.70
2023-05-23T12:58:04.201Z,29.60
2023-05-23T13:00:51.792Z,29.70
2023-05-23T13:03:39.373Z,30.10
2023-05-23T13:06:28.165Z,30.10
2023-05-23T13:09:16.162Z,29.60
2023-05-23T13:12:04.164Z,29.70
2023-05-23T13:14:52.626Z,29.90
2023-05-23T13:17:40.865Z,29.80
2023-05-23T13:20:30.347Z,29.90
2023-05-23T13:23:18.132Z,29.80
2023-05-23T13:26:06.975Z,30.10
2023-05-23T13:28:54.577Z,29.10
2023-05-23T13:31:42.265Z,29.50
2023-05-23T13:34:30.085Z,28.70
2023-05-23T13:37:17.639Z,28.10
2023-05-23T13:40:06.831Z,27.80
2023-05-23T13:42:54.347Z,26.60
2023-05-23T13:45:42.030Z,26.30
2023-05-23T13:48:29.759Z,26.10
2023-05-23T13:51:17.303Z,25.50
2023-05-23T13:54:06.310Z,25.90
2023-05-23T13:56:53.889Z,25.60
2023-05-23T13:59:41.459Z,25.60
2023-05-23T14:02:32.005Z,26.00
2023-05-23T14:05:19.717Z,26.00
2023-05-23T14:08:07.659Z,26.20
2023-05-23T14:10:55.221Z,25.60
2023-05-23T14:13:42.714Z,25.20
2023-05-23T14:16:30.862Z,24.70
2023-05-23T14:19:19.030Z,25.20
2023-05-23T14:22:06.703Z,25.80
2023-05-23T14:24:54.226Z,25.10
2023-05-23T14:27:41.787Z,24.40
2023-05-23T14:30:29.382Z,24.50
2023-05-23T14:33:17.031Z,24.60
2023-05-23T14:36:05.306Z,25.00
2023-05-23T14:38:52.880Z,25.30
2023-05-23T14:41:40.565Z,25.50
2023-05-23T14:44:28.295Z,25.30
2023-05-23T14:47:15.978Z,25.70
2023-05-23T14:50:04.299Z,25.40
2023-05-23T14:52:51.877Z,25.20
2023-05-23T14:55:39.574Z,25.40
2023-05-23T14:58:27.498Z,24.40
2023-05-23T15:01:15.138Z,25.00
2023-05-23T15:04:02.869Z,25.10
2023-05-23T15:06:51.200Z,25.20
2023-05-23T15:09:38.718Z,25.50
2023-05-23T15:12:26.344Z,25.30
2023-05-23T15:15:13.929Z,25.00
2023-05-23T15:18:06.762Z,24.90
2023-05-23T15:20:54.642Z,24.90
2023-05-23T15:23:42.235Z,24.90
2023-05-23T15:26:30.006Z,25.10
2023-05-23T15:29:18.344Z,25.10
2023-05-23T15:32:09.558Z,25.40
2023-05-23T15:34:57.170Z,25.40
2023-05-23T15:37:45.188Z,25.50
2023-05-23T15:40:32.722Z,25.70
2023-05-23T15:43:20.728Z,25.80
2023-05-23T15:46:08.250Z,25.90
2023-05-23T15:49:07.310Z,26.00
2023-05-23T15:52:01.285Z,26.00
2023-05-23T15:54:48.849Z,26.20
2023-05-23T15:57:36.418Z,26.20
2023-05-23T16:00:23.941Z,26.30
2023-05-23T16:03:11.814Z,26.30
2023-05-23T16:05:59.382Z,26.40
2023-05-23T16:08:46.895Z,26.40
2023-05-23T16:11:34.410Z,26.50
2023-05-23T16:14:22.809Z,26.60
2023-05-23T16:17:10.430Z,26.80
2023-05-23T16:19:57.967Z,26.80
2023-05-23T16:22:46.039Z,26.80
2023-05-23T16:25:33.666Z,26.70
2023-05-23T16:28:21.825Z,26.60
2023-05-23T16:31:11.242Z,26.50
2023-05-23T16:33:59.387Z,26.60
2023-05-23T16:36:46.938Z,26.60
2023-05-23T16:39:34.702Z,26.90
2023-05-23T16:42:22.512Z,27.20
2023-05-23T16:45:10.373Z,27.40
2023-05-23T16:47:58.125Z,27.30
2023-05-23T16:50:45.728Z,27.60
2023-05-23T16:53:33.300Z,28.40
2023-05-23T16:56:21.544Z,29.00
2023-05-23T16:59:09.503Z,29.50
2023-05-23T17:01:57.555Z,29.60
2023-05-23T17:04:45.233Z,29.70
2023-05-23T17:07:32.838Z,29.80
2023-05-23T17:10:20.783Z,29.90
2023-05-23T17:13:08.214Z,30.20
2023-05-23T17:15:56.037Z,29.90
2023-05-23T17:18:43.694Z,30.30
2023-05-23T17:21:31.659Z,30.30
2023-05-23T17:24:19.173Z,29.60
2023-05-23T17:27:06.835Z,29.10
2023-05-23T17:29:54.501Z,29.50
2023-05-23T17:32:43.488Z,29.60
2023-05-23T17:35:31.008Z,29.40
2023-05-23T17:38:19.529Z,28.80
2023-05-23T17:41:07.018Z,28.60
2023-05-23T17:43:54.608Z,28.90
2023-05-23T17:46:42.277Z,28.80
2023-05-23T17:49:29.919Z,28.50
2023-05-23T17:52:17.394Z,28.60
2023-05-23T17:55:05.493Z,28.40
2023-05-23T17:57:53.139Z,28.10
2023-05-23T18:00:41.195Z,27.90
2023-05-23T18:03:29.118Z,27.50
2023-05-23T18:06:16.646Z,27.60
2023-05-23T18:09:04.227Z,27.50
2023-05-23T18:11:51.949Z,27.40
2023-05-23T18:14:40.063Z,27.10
2023-05-23T18:17:27.923Z,27.00
2023-05-23T18:20:15.638Z,26.70
2023-05-23T18:23:03.294Z,26.60
2023-05-23T18:25:50.796Z,26.50
2023-05-23T18:28:38.303Z,26.40
2023-05-23T18:31:25.803Z,26.30
2023-05-23T18:34:14.097Z,26.30
2023-05-23T18:37:03.185Z,26.20
2023-05-23T18:39:50.834Z,26.00
2023-05-23T18:42:38.531Z,25.90
2023-05-23T18:45:26.242Z,25.90
2023-05-23T18:48:14.942Z,25.90
2023-05-23T18:51:02.688Z,25.90
2023-05-23T18:53:50.245Z,25.80
2023-05-23T18:56:37.775Z,25.60
2023-05-23T18:59:25.386Z,25.50
2023-05-23T19:02:13.128Z,25.50
2023-05-23T19:05:01.785Z,25.40
2023-05-23T19:07:49.308Z,25.30
2023-05-23T19:10:37.260Z,25.20
2023-05-23T19:13:26.243Z,25.10
2023-05-23T19:16:13.865Z,25.10
2023-05-23T19:19:01.565Z,25.00
2023-05-23T19:21:49.076Z,24.90
2023-05-23T19:24:38.204Z,24.90
2023-05-23T19:27:25.794Z,24.70
2023-05-23T19:30:13.538Z,24.50
2023-05-23T19:33:01.649Z,24.30
2023-05-23T19:35:49.145Z,24.30
2023-05-23T19:38:36.783Z,24.40
2023-05-23T19:41:24.343Z,24.30
2023-05-23T19:44:12.165Z,24.30
2023-05-23T19:46:59.757Z,24.30
2023-05-23T19:49:47.313Z,24.30
2023-05-23T19:52:34.821Z,23.90
2023-05-23T19:55:22.424Z,23.50
2023-05-23T19:58:10.492Z,23.50
2023-05-23T20:00:58.015Z,23.80
2023-05-23T20:03:45.676Z,24.20
2023-05-23T20:06:34.327Z,24.20
2023-05-23T20:09:22.717Z,24.20
2023-05-23T20:12:10.362Z,24.30
2023-05-23T20:14:57.905Z,24.30
2023-05-23T20:17:45.480Z,24.40
2023-05-23T20:20:33.058Z,24.40
2023-05-23T20:23:20.690Z,24.40
2023-05-23T20:26:09.676Z,24.40
2023-05-23T20:28:57.591Z,24.30
2023-05-23T20:31:45.373Z,24.30
2023-05-23T20:34:33.251Z,24.40
2023-05-23T20:37:21.113Z,24.50
2023-05-23T20:40:09.991Z,24.40
2023-05-23T20:43:00.768Z,24.40
2023-05-23T20:45:48.660Z,24.50
2023-05-23T20:48:36.428Z,24.50
2023-05-23T20:51:24.103Z,24.30
2023-05-23T20:54:13.046Z,24.30
2023-05-23T20:57:02.810Z,24.50
2023-05-23T20:59:50.468Z,24.40
2023-05-23T21:02:42.263Z,24.40
2023-05-23T21:05:29.904Z,24.50
2023-05-23T21:08:17.392Z,24.20
2023-05-23T21:11:05.011Z,24.40
2023-05-23T21:13:52.529Z,24.20
2023-05-23T21:16:40.054Z,24.30
2023-05-23T21:19:27.686Z,24.20
2023-05-23T21:22:15.855Z,24.40
2023-05-23T21:25:04.942Z,24.40
2023-05-23T21:27:52.554Z,24.40
2023-05-23T21:30:40.219Z,24.40
2023-05-23T21:33:27.939Z,24.40
2023-05-23T21:36:15.676Z,24.40
2023-05-23T21:39:03.780Z,24.40
2023-05-23T21:41:51.543Z,24.50
2023-05-23T21:44:40.795Z,24.50
2023-05-23T21:47:28.622Z,24.50
2023-05-23T21:50:16.379Z,24.50
2023-05-23T21:53:03.978Z,24.40
2023-05-23T21:55:51.492Z,24.40
2023-05-23T21:58:38.959Z,24.40
2023-05-23T22:01:26.658Z,24.30
2023-05-23T22:04:14.940Z,24.30
2023-05-23T22:07:02.506Z,24.30
2023-05-23T22:09:51.305Z,24.40
2023-05-23T22:12:38.951Z,24.40
2023-05-23T22:15:26.530Z,24.40
2023-05-23T22:18:14.043Z,24.30
2023-05-23T22:21:05.444Z,24.30
2023-05-23T22:23:53.899Z,24.40
2023-05-23T22:26:41.604Z,24.30
2023-05-23T22:29:29.111Z,24.40
2023-05-23T22:32:16.651Z,24.40
2023-05-23T22:35:04.398Z,24.40
2023-05-23T22:37:51.936Z,24.40
2023-05-23T22:40:40.018Z,24.40
2023-05-23T22:43:29.180Z,24.50
2023-05-23T22:46:16.998Z,24.50
2023-05-23T22:49:04.502Z,24.50
2023-05-23T22:51:52.070Z,24.40
2023-05-23T22:54:39.622Z,24.40
2023-05-23T22:57:27.172Z,24.30
2023-05-23T23:00:15.120Z,24.50
2023-05-23T23:03:03.959Z,24.40
2023-05-23T23:05:51.806Z,24.50
2023-05-23T23:08:39.263Z,24.40
2023-05-23T23:11:26.843Z,24.40
2023-05-23T23:14:14.503Z,24.40
2023-05-23T23:17:02.073Z,24.40
2023-05-23T23:19:51.591Z,24.40
2023-05-23T23:22:39.753Z,24.40
2023-05-23T23:25:27.407Z,24.30
2023-05-23T23:28:14.943Z,24.30
2023-05-23T23:31:02.600Z,24.20
2023-05-23T23:33:50.061Z,24.20
2023-05-23T23:36:39.952Z,24.10
2023-05-23T23:39:27.490Z,24.10
2023-05-23T23:42:15.179Z,24.10
2023-05-23T23:45:03.858Z,24.00
2023-05-23T23:47:51.420Z,24.00
2023-05-23T23:50:38.973Z,24.00
2023-05-23T23:53:26.509Z,23.80
2023-05-23T23:56:14.347Z,24.00
2023-05-23T23:59:01.891Z,24.00
